createdAt,value
2023-05-22T00:00:13.531Z,102207.31
2023-05-22T00:02:43.659Z,102207.53
2023-05-22T00:05:12.280Z,102205.94
2023-05-22T00:07:40.538Z,102195.47
2023-05-22T00:10:08.866Z,102196.41
2023-05-22T00:12:36.784Z,102197.22
2023-05-22T00:15:07.218Z,102190.97
2023-05-22T00:17:35.458Z,102198.84
2023-05-22T00:20:04.511Z,102195.25
2023-05-22T00:22:35.565Z,102197.94
2023-05-22T00:25:04.021Z,102197.13
2023-05-22T00:27:31.934Z,102190.97
2023-05-22T00:30:00.062Z,102182.31
2023-05-22T00:32:29.428Z,102180.75
2023-05-22T00:34:57.308Z,102186.25
2023-05-22T00:37:26.008Z,102185.31
2023-05-22T00:39:53.897Z,102187.16
2023-05-22T00:42:21.824Z,102183.81
2023-05-22T00:44:49.943Z,102180.41
2023-05-22T00:47:17.811Z,102182.28
2023-05-22T00:49:47.034Z,102185.03
2023-05-22T00:52:14.963Z,102175.25
2023-05-22T00:54:42.912Z,102192.38
2023-05-22T00:57:10.918Z,102187.25
2023-05-22T00:59:38.833Z,102191.88
2023-05-22T01:02:06.960Z,102184.00
2023-05-22T01:04:35.316Z,102189.19
2023-05-22T01:07:06.193Z,102192.69
2023-05-22T01:09:34.096Z,102191.78
2023-05-22T01:12:04.563Z,102190.91
2023-05-22T01:14:40.099Z,102189.81
2023-05-22T01:17:12.928Z,102183.56
2023-05-22T01:20:10.119Z,102189.72
2023-05-22T01:23:02.793Z,102183.56
2023-05-22T01:25:41.603Z,102183.69
2023-05-22T01:28:18.462Z,102192.03
2023-05-22T01:30:51.520Z,102190.59
2023-05-22T01:33:19.511Z,102188.19
2023-05-22T01:35:49.755Z,102188.28
2023-05-22T01:38:17.676Z,102193.56
2023-05-22T01:40:46.258Z,102187.19
2023-05-22T01:43:14.275Z,102195.06
2023-05-22T01:45:42.334Z,102194.97
2023-05-22T01:48:12.461Z,102189.50
2023-05-22T01:50:40.914Z,102188.75
2023-05-22T01:53:12.225Z,102194.22
2023-05-22T01:55:43.287Z,102200.63
2023-05-22T01:58:14.981Z,102197.13
2023-05-22T02:00:43.775Z,102195.38
2023-05-22T02:03:18.644Z,102195.34
2023-05-22T02:05:46.838Z,102195.34
2023-05-22T02:08:14.788Z,102191.63
2023-05-22T02:10:42.707Z,102193.53
2023-05-22T02:13:10.701Z,102198.91
2023-05-22T02:15:38.581Z,102199.03
2023-05-22T02:18:13.144Z,102191.97
2023-05-22T02:20:41.579Z,102198.50
2023-05-22T02:23:09.976Z,102196.06
2023-05-22T02:25:37.887Z,102198.94
2023-05-22T02:28:05.989Z,102194.75
2023-05-22T02:30:33.887Z,102197.59
2023-05-22T02:33:05.560Z,102198.72
2023-05-22T02:35:34.906Z,102207.72
2023-05-22T02:38:03.511Z,102204.34
2023-05-22T02:40:31.536Z,102201.69
2023-05-22T02:42:59.494Z,102201.00
2023-05-22T02:45:27.629Z,102203.66
2023-05-22T02:47:55.559Z,102202.78
2023-05-22T02:50:23.500Z,102206.22
2023-05-22T02:52:52.779Z,102205.19
2023-05-22T02:55:21.053Z,102209.50
2023-05-22T02:57:48.936Z,102208.53
2023-05-22T03:00:17.791Z,102212.06
2023-05-22T03:02:45.943Z,102209.50
2023-05-22T03:05:17.995Z,102206.91
2023-05-22T03:07:48.566Z,102207.84
2023-05-22T03:10:18.649Z,102203.50
2023-05-22T03:12:46.590Z,102202.72
2023-05-22T03:15:14.510Z,102204.63
2023-05-22T03:17:42.418Z,102198.53
2023-05-22T03:20:11.551Z,102207.56
2023-05-22T03:22:39.475Z,102205.00
2023-05-22T03:25:09.462Z,102197.09
2023-05-22T03:27:40.558Z,102201.66
2023-05-22T03:30:09.610Z,102196.41
2023-05-22T03:32:38.227Z,102188.59
2023-05-22T03:35:07.345Z,102185.84
2023-05-22T03:37:35.270Z,102191.19
2023-05-22T03:40:04.889Z,102192.97
2023-05-22T03:42:32.989Z,102199.19
2023-05-22T03:45:02.469Z,102168.75
2023-05-22T03:47:30.568Z,102193.81
2023-05-22T03:49:58.574Z,102202.63
2023-05-22T03:52:26.564Z,102202.63
2023-05-22T03:54:54.543Z,102212.34
2023-05-22T03:57:22.455Z,102201.78
2023-05-22T03:59:50.493Z,102206.28
2023-05-22T04:02:20.300Z,102207.25
2023-05-22T04:04:48.407Z,102208.19
2023-05-22T04:07:18.511Z,102198.50
2023-05-22T04:09:46.569Z,102205.69
2023-05-22T04:12:14.479Z,102210.31
2023-05-22T04:14:42.364Z,102208.59
2023-05-22T04:17:11.655Z,102211.41
2023-05-22T04:19:40.951Z,102208.72
2023-05-22T04:22:08.820Z,102216.75
2023-05-22T04:24:39.740Z,102225.69
2023-05-22T04:27:07.978Z,102211.47
2023-05-22T04:29:36.389Z,102217.69
2023-05-22T04:32:06.317Z,102219.41
2023-05-22T04:34:37.418Z,102217.69
2023-05-22T04:37:07.009Z,102215.91
2023-05-22T04:39:35.400Z,102221.25
2023-05-22T04:42:05.867Z,102215.00
2023-05-22T04:44:34.493Z,102209.69
2023-05-22T04:47:02.538Z,102215.91
2023-05-22T04:49:30.600Z,102215.91
2023-05-22T04:51:58.491Z,102215.00
2023-05-22T04:54:27.796Z,102220.41
2023-05-22T04:56:55.729Z,102220.41
2023-05-22T04:59:26.592Z,102223.09
2023-05-22T05:01:54.847Z,102223.91
2023-05-22T05:04:22.754Z,102222.06
2023-05-22T05:06:52.837Z,102221.06
2023-05-22T05:09:20.850Z,102233.44
2023-05-22T05:11:50.884Z,102229.81
2023-05-22T05:14:19.748Z,102233.19
2023-05-22T05:16:48.693Z,102238.50
2023-05-22T05:19:17.713Z,102232.03
2023-05-22T05:21:45.954Z,102237.47
2023-05-22T05:24:13.895Z,102238.75
2023-05-22T05:26:41.805Z,102238.50
2023-05-22T05:29:11.097Z,102239.94
2023-05-22T05:31:39.104Z,102247.28
2023-05-22T05:34:07.094Z,102251.28
2023-05-22T05:36:35.046Z,102243.13
2023-05-22T05:39:02.955Z,102253.81
2023-05-22T05:41:30.913Z,102253.00
2023-05-22T05:44:00.155Z,102251.31
2023-05-22T05:46:29.598Z,102258.41
2023-05-22T05:48:59.583Z,102257.44
2023-05-22T05:51:27.490Z,102249.25
2023-05-22T05:53:55.458Z,102252.66
2023-05-22T05:56:23.450Z,102263.13
2023-05-22T05:58:51.576Z,102261.97
2023-05-22T06:01:19.916Z,102264.47
2023-05-22T06:03:49.480Z,102265.88
2023-05-22T06:06:19.014Z,102254.72
2023-05-22T06:08:46.940Z,102257.91
2023-05-22T06:11:14.881Z,102260.25
2023-05-22T06:13:42.790Z,102260.81
2023-05-22T06:16:10.740Z,102259.66
2023-05-22T06:18:38.715Z,102262.88
2023-05-22T06:21:08.134Z,102259.88
2023-05-22T06:23:36.049Z,102268.50
2023-05-22T06:26:05.165Z,102264.66
2023-05-22T06:28:33.058Z,102258.97
2023-05-22T06:31:01.524Z,102268.44
2023-05-22T06:33:32.290Z,102265.44
2023-05-22T06:36:00.398Z,102264.28
2023-05-22T06:38:30.310Z,102259.66
2023-05-22T06:40:58.380Z,102268.41
2023-05-22T06:43:26.318Z,102271.78
2023-05-22T06:45:54.352Z,102271.78
2023-05-22T06:48:22.390Z,102272.31
2023-05-22T06:50:50.352Z,102281.81
2023-05-22T06:53:18.311Z,102284.22
2023-05-22T06:55:47.920Z,102287.41
2023-05-22T06:58:16.058Z,102290.84
2023-05-22T07:00:43.968Z,102287.75
2023-05-22T07:03:12.029Z,102297.44
2023-05-22T07:05:40.304Z,102301.59
2023-05-22T07:08:08.610Z,102303.09
2023-05-22T07:10:37.007Z,102304.50
2023-05-22T07:13:06.556Z,102296.25
2023-05-22T07:15:34.657Z,102301.13
2023-05-22T07:18:03.196Z,102305.25
2023-05-22T07:20:31.133Z,102304.94
2023-05-22T07:22:59.459Z,102309.94
2023-05-22T07:25:27.394Z,102312.31
2023-05-22T07:27:55.602Z,102323.53
2023-05-22T07:30:25.386Z,102324.09
2023-05-22T07:32:53.621Z,102323.97
2023-05-22T07:35:21.994Z,102321.00
2023-05-22T07:37:50.011Z,102325.88
2023-05-22T07:40:17.985Z,102318.22
2023-05-22T07:42:46.093Z,102321.38
2023-05-22T07:45:14.024Z,102318.31
2023-05-22T07:47:43.524Z,102318.75
2023-05-22T07:50:11.690Z,102326.31
2023-05-22T07:52:39.720Z,102318.03
2023-05-22T07:55:09.178Z,102322.13
2023-05-22T07:57:37.122Z,102324.38
2023-05-22T08:00:13.787Z,102323.09
2023-05-22T08:02:44.009Z,102315.97
2023-05-22T08:05:12.543Z,102329.31
2023-05-22T08:07:40.761Z,102335.84
2023-05-22T08:10:10.094Z,102324.72
2023-05-22T08:12:38.293Z,102334.06
2023-05-22T08:15:07.956Z,102320.47
2023-05-22T08:17:36.755Z,102328.69
2023-05-22T08:20:09.399Z,102324.84
2023-05-22T08:22:39.722Z,102330.66
2023-05-22T08:25:07.943Z,102328.66
2023-05-22T08:27:36.085Z,102330.22
2023-05-22T08:30:05.345Z,102334.34
2023-05-22T08:32:33.517Z,102326.81
2023-05-22T08:35:02.848Z,102335.41
2023-05-22T08:37:32.576Z,102332.13
2023-05-22T08:40:00.800Z,102335.91
2023-05-22T08:42:29.111Z,102332.47
2023-05-22T08:44:58.000Z,102339.06
2023-05-22T08:47:26.988Z,102336.81
2023-05-22T08:49:55.055Z,102331.78
2023-05-22T08:52:24.044Z,102324.91
2023-05-22T08:54:55.508Z,102320.66
2023-05-22T08:57:23.864Z,102322.38
2023-05-22T08:59:51.897Z,102320.56
2023-05-22T09:02:20.252Z,102303.56
2023-05-22T09:04:48.578Z,102305.97
2023-05-22T09:07:16.727Z,102307.84
2023-05-22T09:09:44.750Z,102318.66
2023-05-22T09:12:14.354Z,102314.63
2023-05-22T09:14:42.359Z,102317.69
2023-05-22T09:17:11.355Z,102322.81
2023-05-22T09:19:40.544Z,102326.28
2023-05-22T09:22:08.711Z,102318.00
2023-05-22T09:24:39.314Z,102321.53
2023-05-22T09:27:08.370Z,102319.63
2023-05-22T09:29:50.540Z,102315.66
2023-05-22T09:32:18.791Z,102325.59
2023-05-22T09:34:47.503Z,102320.22
2023-05-22T09:37:15.414Z,102324.88
2023-05-22T09:39:45.087Z,102328.78
2023-05-22T09:42:14.964Z,102328.19
2023-05-22T09:44:44.840Z,102326.53
2023-05-22T09:47:12.790Z,102310.38
2023-05-22T09:49:42.767Z,102322.84
2023-05-22T09:52:12.532Z,102328.94
2023-05-22T09:54:42.169Z,102318.66
2023-05-22T09:57:10.248Z,102321.75
2023-05-22T09:59:40.274Z,102313.97
2023-05-22T10:02:09.866Z,102309.22
2023-05-22T10:04:38.388Z,102316.09
2023-05-22T10:07:06.964Z,102317.50
2023-05-22T10:09:35.730Z,102310.56
2023-05-22T10:12:05.401Z,102309.03
2023-05-22T10:14:33.720Z,102309.00
2023-05-22T10:17:03.143Z,102314.31
2023-05-22T10:19:33.388Z,102319.63
2023-05-22T10:22:01.941Z,102319.75
2023-05-22T10:24:30.731Z,102312.09
2023-05-22T10:26:58.740Z,102319.63
2023-05-22T10:29:32.242Z,102316.38
2023-05-22T10:32:02.848Z,102319.66
2023-05-22T10:34:35.672Z,102328.38
2023-05-22T10:37:17.367Z,102313.81
2023-05-22T10:39:53.020Z,102318.34
2023-05-22T10:42:21.341Z,102320.63
2023-05-22T10:44:49.622Z,102320.03
2023-05-22T10:47:17.556Z,102317.78
2023-05-22T10:49:47.087Z,102314.56
2023-05-22T10:52:15.690Z,102313.19
2023-05-22T10:54:46.675Z,102307.97
2023-05-22T10:57:16.025Z,102308.97
2023-05-22T10:59:44.139Z,102306.94
2023-05-22T11:02:22.266Z,102308.88
2023-05-22T11:04:52.062Z,102305.56
2023-05-22T11:07:20.304Z,102314.56
2023-05-22T11:09:48.814Z,102313.78
2023-05-22T11:12:21.377Z,102311.06
2023-05-22T11:14:53.224Z,102303.09
2023-05-22T11:17:24.700Z,102304.75
2023-05-22T11:20:01.581Z,102309.50
2023-05-22T11:22:39.251Z,102301.53
2023-05-22T11:25:09.105Z,102308.97
2023-05-22T11:27:37.591Z,102299.47
2023-05-22T11:30:06.741Z,102300.06
2023-05-22T11:32:37.028Z,102297.03
2023-05-22T11:35:08.441Z,102299.97
2023-05-22T11:37:39.767Z,102302.34
2023-05-22T11:40:08.824Z,102291.00
2023-05-22T11:42:36.851Z,102297.50
2023-05-22T11:45:05.257Z,102297.56
2023-05-22T11:47:33.265Z,102296.81
2023-05-22T11:50:01.627Z,102299.16
2023-05-22T11:52:32.948Z,102299.38
2023-05-22T11:55:01.011Z,102296.41
2023-05-22T11:57:29.149Z,102284.44
2023-05-22T11:59:57.070Z,102289.44
2023-05-22T12:02:25.149Z,102284.16
2023-05-22T12:04:58.704Z,102279.53
2023-05-22T12:07:27.617Z,102282.63
2023-05-22T12:09:58.662Z,102280.06
2023-05-22T12:12:26.739Z,102287.88
2023-05-22T12:14:54.733Z,102281.16
2023-05-22T12:17:23.671Z,102281.50
2023-05-22T12:19:51.679Z,102283.16
2023-05-22T12:22:20.790Z,102274.50
2023-05-22T12:24:53.192Z,102265.06
2023-05-22T12:27:22.496Z,102272.78
2023-05-22T12:29:50.987Z,102270.03
2023-05-22T12:32:19.005Z,102261.31
2023-05-22T12:34:47.697Z,102274.25
2023-05-22T12:37:19.939Z,102279.06
2023-05-22T12:39:58.082Z,102282.09
2023-05-22T12:42:27.428Z,102273.50
2023-05-22T12:44:56.075Z,102269.63
2023-05-22T12:47:24.018Z,102276.09
2023-05-22T12:49:52.200Z,102274.81
2023-05-22T12:52:20.348Z,102273.50
2023-05-22T12:54:48.510Z,102269.31
2023-05-22T12:57:17.165Z,102276.81
2023-05-22T12:59:46.716Z,102275.38
2023-05-22T13:02:14.830Z,102263.72
2023-05-22T13:04:42.814Z,102275.50
2023-05-22T13:07:11.089Z,102268.59
2023-05-22T13:09:39.095Z,102272.31
2023-05-22T13:12:07.969Z,102265.25
2023-05-22T13:14:38.945Z,102269.56
2023-05-22T13:17:08.624Z,102271.34
2023-05-22T13:19:36.721Z,102281.41
2023-05-22T13:22:04.954Z,102267.56
2023-05-22T13:24:32.977Z,102283.47
2023-05-22T13:27:00.934Z,102269.94
2023-05-22T13:29:30.116Z,102281.66
2023-05-22T13:31:58.040Z,102272.31
2023-05-22T13:34:27.692Z,102283.47
2023-05-22T13:36:56.221Z,102288.84
2023-05-22T13:39:24.657Z,102277.81
2023-05-22T13:41:53.152Z,102266.94
2023-05-22T13:44:21.383Z,102273.53
2023-05-22T13:46:49.546Z,102275.34
2023-05-22T13:49:17.590Z,102277.53
2023-05-22T13:51:47.085Z,102277.06
2023-05-22T13:54:15.224Z,102278.09
2023-05-22T13:56:43.231Z,102282.31
2023-05-22T13:59:11.322Z,102282.47
2023-05-22T14:01:39.525Z,102278.81
2023-05-22T14:04:07.791Z,102282.94
2023-05-22T14:06:36.055Z,102278.22
2023-05-22T14:09:07.975Z,102278.41
2023-05-22T14:11:36.329Z,102280.69
2023-05-22T14:14:04.492Z,102263.97
2023-05-22T14:16:32.908Z,102271.41
2023-05-22T14:19:01.704Z,102267.41
2023-05-22T14:21:29.744Z,102275.88
2023-05-22T14:23:57.716Z,102268.72
2023-05-22T14:26:27.106Z,102278.44
2023-05-22T14:28:55.608Z,102273.44
2023-05-22T14:31:23.608Z,102270.56
2023-05-22T14:33:51.685Z,102273.41
2023-05-22T14:36:19.559Z,102275.78
2023-05-22T14:38:47.418Z,102261.44
2023-05-22T14:41:16.295Z,102272.38
2023-05-22T14:43:45.676Z,102267.81
2023-05-22T14:46:13.722Z,102263.81
2023-05-22T14:48:41.721Z,102271.09
2023-05-22T14:51:09.901Z,102264.56
2023-05-22T14:53:37.990Z,102270.69
2023-05-22T14:56:06.781Z,102274.81
2023-05-22T14:58:35.080Z,102277.44
2023-05-22T15:01:04.704Z,102274.34
2023-05-22T15:03:32.756Z,102288.47
2023-05-22T15:06:00.725Z,102288.72
2023-05-22T15:08:28.680Z,102296.19
2023-05-22T15:10:56.620Z,102293.72
2023-05-22T15:13:24.688Z,102291.56
2023-05-22T15:15:52.762Z,102299.16
2023-05-22T15:18:22.240Z,102294.00
2023-05-22T15:20:50.529Z,102293.94
2023-05-22T15:23:18.444Z,102295.75
2023-05-22T15:25:48.156Z,102300.06
2023-05-22T15:28:16.453Z,102297.72
2023-05-22T15:30:44.403Z,102299.28
2023-05-22T15:33:12.773Z,102298.25
2023-05-22T15:35:44.024Z,102300.38
2023-05-22T15:38:13.245Z,102296.19
2023-05-22T15:40:41.862Z,102306.19
2023-05-22T15:43:09.847Z,102309.44
2023-05-22T15:45:38.227Z,102304.72
2023-05-22T15:48:06.699Z,102312.63
2023-05-22T15:50:34.757Z,102316.28
2023-05-22T15:53:04.069Z,102307.75
2023-05-22T15:55:33.458Z,102309.88
2023-05-22T15:58:02.738Z,102302.94
2023-05-22T16:00:30.679Z,102292.97
2023-05-22T16:02:58.743Z,102300.56
2023-05-22T16:05:26.795Z,102305.03
2023-05-22T16:07:55.015Z,102300.19
2023-05-22T16:10:24.320Z,102304.84
2023-05-22T16:12:52.296Z,102304.13
2023-05-22T16:15:20.323Z,102315.53
2023-05-22T16:17:48.369Z,102314.81
2023-05-22T16:20:16.932Z,102316.31
2023-05-22T16:22:48.802Z,102326.81
2023-05-22T16:25:17.109Z,102321.09
2023-05-22T16:27:46.513Z,102314.78
2023-05-22T16:30:16.861Z,102317.38
2023-05-22T16:32:46.111Z,102304.41
2023-05-22T16:35:14.117Z,102310.13
2023-05-22T16:37:42.164Z,102319.31
2023-05-22T16:40:10.729Z,102325.03
2023-05-22T16:42:38.928Z,102331.34
2023-05-22T16:45:09.200Z,102323.53
2023-05-22T16:47:37.349Z,102317.22
2023-05-22T16:50:06.064Z,102315.44
2023-05-22T16:52:33.997Z,102304.31
2023-05-22T16:55:02.374Z,102301.31
2023-05-22T16:57:30.760Z,102297.13
2023-05-22T16:59:58.796Z,102315.44
2023-05-22T17:02:28.475Z,102314.56
2023-05-22T17:04:56.481Z,102329.53
2023-05-22T17:07:24.903Z,102333.38
2023-05-22T17:09:52.933Z,102327.06
2023-05-22T17:12:20.909Z,102324.88
2023-05-22T17:14:48.926Z,102325.69
2023-05-22T17:17:16.964Z,102332.78
2023-05-22T17:19:46.357Z,102324.78
2023-05-22T17:22:14.462Z,102308.97
2023-05-22T17:24:42.419Z,102332.81
2023-05-22T17:27:11.200Z,102330.13
2023-05-22T17:29:39.351Z,102334.56
2023-05-22T17:32:08.070Z,102332.94
2023-05-22T17:34:36.107Z,102321.13
2023-05-22T17:37:05.617Z,102321.63
2023-05-22T17:39:34.470Z,102312.69
2023-05-22T17:42:02.708Z,102319.75
2023-05-22T17:44:31.235Z,102322.53
2023-05-22T17:46:59.342Z,102332.31
2023-05-22T17:49:27.471Z,102320.84
2023-05-22T17:51:55.392Z,102331.28
2023-05-22T17:54:24.751Z,102321.72
2023-05-22T17:56:53.095Z,102324.75
2023-05-22T17:59:21.080Z,102324.41
2023-05-22T18:01:49.206Z,102321.69
2023-05-22T18:04:17.129Z,102315.16
2023-05-22T18:06:45.362Z,102319.63
2023-05-22T18:09:13.519Z,102330.50
2023-05-22T18:11:43.359Z,102340.16
2023-05-22T18:14:11.342Z,102334.69
2023-05-22T18:16:39.312Z,102337.75
2023-05-22T18:19:07.429Z,102348.75
2023-05-22T18:21:35.417Z,102337.06
2023-05-22T18:24:03.389Z,102334.03
2023-05-22T18:26:31.668Z,102340.78
2023-05-22T18:29:01.214Z,102333.00
2023-05-22T18:31:29.200Z,102346.34
2023-05-22T18:33:57.197Z,102333.94
2023-05-22T18:36:25.387Z,102332.53
2023-05-22T18:38:53.321Z,102336.97
2023-05-22T18:41:22.048Z,102336.06
2023-05-22T18:43:50.141Z,102345.91
2023-05-22T18:46:19.535Z,102354.50
2023-05-22T18:48:47.484Z,102356.28
2023-05-22T18:51:16.599Z,102355.25
2023-05-22T18:53:44.509Z,102358.69
2023-05-22T18:56:12.629Z,102356.63
2023-05-22T18:58:41.618Z,102351.00
2023-05-22T19:01:09.827Z,102356.66
2023-05-22T19:03:39.310Z,102355.53
2023-05-22T19:06:08.357Z,102366.44
2023-05-22T19:08:36.248Z,102359.88
2023-05-22T19:11:04.146Z,102372.16
2023-05-22T19:13:32.076Z,102371.66
2023-05-22T19:16:00.101Z,102369.97
2023-05-22T19:18:28.441Z,102364.94
2023-05-22T19:20:58.188Z,102369.03
2023-05-22T19:23:26.368Z,102370.56
2023-05-22T19:25:55.675Z,102375.69
2023-05-22T19:28:23.818Z,102374.41
2023-05-22T19:30:51.990Z,102370.34
2023-05-22T19:33:21.381Z,102369.81
2023-05-22T19:35:49.587Z,102363.78
2023-05-22T19:38:18.996Z,102357.06
2023-05-22T19:40:47.665Z,102372.53
2023-05-22T19:43:16.122Z,102381.88
2023-05-22T19:45:45.456Z,102370.94
2023-05-22T19:48:13.449Z,102391.06
2023-05-22T19:50:41.864Z,102385.53
2023-05-22T19:53:10.337Z,102398.47
2023-05-22T19:55:39.736Z,102394.34
2023-05-22T19:58:07.711Z,102400.97
2023-05-22T20:00:36.302Z,102405.78
2023-05-22T20:03:04.677Z,102404.25
2023-05-22T20:05:32.923Z,102415.47
2023-05-22T20:08:01.028Z,102413.94
2023-05-22T20:10:29.012Z,102406.16
2023-05-22T20:12:59.237Z,102406.53
2023-05-22T20:15:27.250Z,102417.50
2023-05-22T20:17:55.615Z,102415.13
2023-05-22T20:20:24.706Z,102427.91
2023-05-22T20:22:54.006Z,102429.84
2023-05-22T20:25:23.739Z,102418.50
2023-05-22T20:27:51.763Z,102423.94
2023-05-22T20:30:21.615Z,102424.97
2023-05-22T20:32:49.779Z,102433.28
2023-05-22T20:35:18.982Z,102430.88
2023-05-22T20:37:47.506Z,102445.34
2023-05-22T20:40:16.232Z,102447.34
2023-05-22T20:42:44.844Z,102444.78
2023-05-22T20:45:14.804Z,102456.38
2023-05-22T20:47:45.896Z,102463.59
2023-05-22T20:50:14.572Z,102446.75
2023-05-22T20:52:42.710Z,102461.94
2023-05-22T20:55:11.218Z,102463.81
2023-05-22T20:57:39.312Z,102468.31
2023-05-22T21:00:13.993Z,102480.00
2023-05-22T21:02:42.160Z,102473.75
2023-05-22T21:05:11.928Z,102482.84
2023-05-22T21:07:39.991Z,102488.41
2023-05-22T21:10:09.194Z,102498.28
2023-05-22T21:12:37.114Z,102480.47
2023-05-22T21:15:06.115Z,102483.16
2023-05-22T21:17:34.316Z,102500.16
2023-05-22T21:20:02.375Z,102513.66
2023-05-22T21:22:31.768Z,102509.28
2023-05-22T21:24:59.861Z,102521.84
2023-05-22T21:27:28.019Z,102521.84
2023-05-22T21:29:56.304Z,102516.53
2023-05-22T21:32:24.260Z,102513.81
2023-05-22T21:34:52.207Z,102530.72
2023-05-22T21:37:20.127Z,102539.50
2023-05-22T21:39:49.621Z,102532.53
2023-05-22T21:42:18.139Z,102529.97
2023-05-22T21:44:46.212Z,102530.03
2023-05-22T21:47:14.125Z,102529.16
2023-05-22T21:49:42.641Z,102534.69
2023-05-22T21:52:10.747Z,102540.06
2023-05-22T21:54:38.807Z,102554.34
2023-05-22T21:57:08.253Z,102547.16
2023-05-22T21:59:36.431Z,102549.22
2023-05-22T22:02:04.404Z,102544.84
2023-05-22T22:04:32.520Z,102551.28
2023-05-22T22:07:00.779Z,102554.78
2023-05-22T22:09:28.673Z,102552.19
2023-05-22T22:11:56.579Z,102562.13
2023-05-22T22:14:25.858Z,102568.38
2023-05-22T22:16:54.891Z,102572.78
2023-05-22T22:19:23.466Z,102556.84
2023-05-22T22:21:51.727Z,102566.69
2023-05-22T22:24:19.713Z,102582.66
2023-05-22T22:26:49.194Z,102569.28
2023-05-22T22:29:17.216Z,102573.94
2023-05-22T22:31:47.062Z,102566.09
2023-05-22T22:34:15.130Z,102572.66
2023-05-22T22:36:43.279Z,102567.41
2023-05-22T22:39:11.791Z,102577.28
2023-05-22T22:41:39.678Z,102572.88
2023-05-22T22:44:07.572Z,102576.28
2023-05-22T22:46:35.713Z,102582.53
2023-05-22T22:49:05.194Z,102585.22
2023-05-22T22:51:34.525Z,102599.63
2023-05-22T22:54:02.483Z,102589.09
2023-05-22T22:56:30.614Z,102586.47
2023-05-22T22:58:58.503Z,102582.13
2023-05-22T23:01:26.731Z,102585.81
2023-05-22T23:03:54.620Z,102596.53
2023-05-22T23:06:23.915Z,102602.69
2023-05-22T23:08:51.812Z,102600.00
2023-05-22T23:11:19.708Z,102596.38
2023-05-22T23:13:47.646Z,102597.41
2023-05-22T23:16:16.345Z,102588.84
2023-05-22T23:18:44.234Z,102600.31
2023-05-22T23:21:12.175Z,102597.72
2023-05-22T23:23:42.051Z,102601.31
2023-05-22T23:26:10.197Z,102605.97
2023-05-22T23:28:38.362Z,102610.53
2023-05-22T23:31:06.367Z,102612.38
2023-05-22T23:33:34.278Z,102617.78
2023-05-22T23:36:02.171Z,102611.59
2023-05-22T23:38:30.058Z,102610.94
2023-05-22T23:40:59.389Z,102613.88
2023-05-22T23:43:27.439Z,102616.72
2023-05-22T23:45:55.445Z,102614.28
2023-05-22T23:48:23.347Z,102612.59
2023-05-22T23:50:51.292Z,102613.44
2023-05-22T23:53:19.209Z,102613.56
2023-05-22T23:55:47.182Z,102614.56
2023-05-22T23:58:16.986Z,102615.63
